sensor_id;sensor_type;location;lat;lon;timestamp;P1;durP1;ratioP1;P2;durP2;ratioP2
75535;SDS011;64119;52.070;20.804;2023-04-24T00:00:45;9.50;;;5.30;;
75535;SDS011;64119;52.070;20.804;2023-04-24T00:03:24;9.50;;;6.00;;
75535;SDS011;64119;52.070;20.804;2023-04-24T00:05:56;9.80;;;6.10;;
75535;SDS011;64119;52.070;20.804;2023-04-24T00:08:23;8.80;;;6.20;;
75535;SDS011;64119;52.070;20.804;2023-04-24T00:10:51;9.70;;;6.50;;
75535;SDS011;64119;52.070;20.804;2023-04-24T00:13:20;7.70;;;5.90;;
75535;SDS011;64119;52.070;20.804;2023-04-24T00:15:48;7.20;;;5.30;;
75535;SDS011;64119;52.070;20.804;2023-04-24T00:18:16;7.70;;;5.60;;
75535;SDS011;64119;52.070;20.804;2023-04-24T00:20:44;9.80;;;6.20;;
75535;SDS011;64119;52.070;20.804;2023-04-24T00:23:12;9.10;;;6.80;;
75535;SDS011;64119;52.070;20.804;2023-04-24T00:25:40;7.40;;;5.80;;
75535;SDS011;64119;52.070;20.804;2023-04-24T00:28:08;7.30;;;5.00;;
75535;SDS011;64119;52.070;20.804;2023-04-24T00:30:36;6.80;;;5.00;;
75535;SDS011;64119;52.070;20.804;2023-04-24T00:33:03;8.80;;;6.50;;
75535;SDS011;64119;52.070;20.804;2023-04-24T00:35:31;5.90;;;5.10;;
75535;SDS011;64119;52.070;20.804;2023-04-24T00:37:59;8.90;;;6.40;;
75535;SDS011;64119;52.070;20.804;2023-04-24T00:40:28;10.30;;;6.40;;
75535;SDS011;64119;52.070;20.804;2023-04-24T00:42:56;8.20;;;5.60;;
75535;SDS011;64119;52.070;20.804;2023-04-24T00:45:24;10.20;;;7.40;;
75535;SDS011;64119;52.070;20.804;2023-04-24T00:47:52;8.00;;;5.30;;
75535;SDS011;64119;52.070;20.804;2023-04-24T00:50:21;7.70;;;5.30;;
75535;SDS011;64119;52.070;20.804;2023-04-24T00:55:18;8.10;;;5.20;;
75535;SDS011;64119;52.070;20.804;2023-04-24T00:57:46;7.30;;;6.00;;
75535;SDS011;64119;52.070;20.804;2023-04-24T01:00:16;9.40;;;6.10;;
75535;SDS011;64119;52.070;20.804;2023-04-24T01:02:44;8.00;;;5.60;;
75535;SDS011;64119;52.070;20.804;2023-04-24T01:05:14;7.40;;;5.80;;
75535;SDS011;64119;52.070;20.804;2023-04-24T01:07:43;8.00;;;5.90;;
75535;SDS011;64119;52.070;20.804;2023-04-24T01:10:13;8.00;;;5.90;;
75535;SDS011;64119;52.070;20.804;2023-04-24T01:12:42;11.20;;;7.50;;
75535;SDS011;64119;52.070;20.804;2023-04-24T01:15:12;8.50;;;6.10;;
75535;SDS011;64119;52.070;20.804;2023-04-24T01:17:41;9.60;;;6.60;;
75535;SDS011;64119;52.070;20.804;2023-04-24T01:20:09;11.30;;;6.50;;
75535;SDS011;64119;52.070;20.804;2023-04-24T01:22:38;11.00;;;7.40;;
75535;SDS011;64119;52.070;20.804;2023-04-24T01:25:06;9.80;;;6.80;;
75535;SDS011;64119;52.070;20.804;2023-04-24T01:27:34;12.20;;;6.30;;
75535;SDS011;64119;52.070;20.804;2023-04-24T01:30:02;9.40;;;5.30;;
75535;SDS011;64119;52.070;20.804;2023-04-24T01:32:30;10.70;;;6.70;;
75535;SDS011;64119;52.070;20.804;2023-04-24T01:34:58;10.70;;;6.50;;
75535;SDS011;64119;52.070;20.804;2023-04-24T01:37:27;8.90;;;6.00;;
75535;SDS011;64119;52.070;20.804;2023-04-24T01:39:54;8.40;;;5.80;;
75535;SDS011;64119;52.070;20.804;2023-04-24T01:42:22;8.30;;;6.20;;
75535;SDS011;64119;52.070;20.804;2023-04-24T01:44:51;8.10;;;6.50;;
75535;SDS011;64119;52.070;20.804;2023-04-24T01:47:19;9.80;;;6.70;;
75535;SDS011;64119;52.070;20.804;2023-04-24T01:49:47;8.80;;;7.20;;
75535;SDS011;64119;52.070;20.804;2023-04-24T01:52:16;10.80;;;6.70;;
75535;SDS011;64119;52.070;20.804;2023-04-24T01:54:45;9.10;;;6.10;;
75535;SDS011;64119;52.070;20.804;2023-04-24T01:57:13;12.80;;;6.70;;
75535;SDS011;64119;52.070;20.804;2023-04-24T01:59:42;10.70;;;6.70;;
75535;SDS011;64119;52.070;20.804;2023-04-24T02:02:10;7.90;;;6.00;;
75535;SDS011;64119;52.070;20.804;2023-04-24T02:04:38;12.10;;;7.30;;
75535;SDS011;64119;52.070;20.804;2023-04-24T02:07:07;13.70;;;7.40;;
75535;SDS011;64119;52.070;20.804;2023-04-24T02:09:35;10.20;;;7.20;;
75535;SDS011;64119;52.070;20.804;2023-04-24T02:12:03;9.50;;;6.90;;
75535;SDS011;64119;52.070;20.804;2023-04-24T02:14:31;11.50;;;7.60;;
75535;SDS011;64119;52.070;20.804;2023-04-24T02:16:58;11.80;;;6.80;;
75535;SDS011;64119;52.070;20.804;2023-04-24T02:19:26;12.50;;;7.10;;
75535;SDS011;64119;52.070;20.804;2023-04-24T02:21:54;10.40;;;6.40;;
75535;SDS011;64119;52.070;20.804;2023-04-24T02:24:22;7.30;;;5.70;;
75535;SDS011;64119;52.070;20.804;2023-04-24T02:26:50;8.70;;;6.40;;
75535;SDS011;64119;52.070;20.804;2023-04-24T02:29:18;9.00;;;6.10;;
75535;SDS011;64119;52.070;20.804;2023-04-24T02:31:46;9.10;;;6.60;;
75535;SDS011;64119;52.070;20.804;2023-04-24T02:34:14;12.90;;;7.50;;
75535;SDS011;64119;52.070;20.804;2023-04-24T02:36:42;11.30;;;6.90;;
75535;SDS011;64119;52.070;20.804;2023-04-24T02:39:10;10.00;;;7.00;;
75535;SDS011;64119;52.070;20.804;2023-04-24T02:41:38;11.60;;;7.80;;
75535;SDS011;64119;52.070;20.804;2023-04-24T02:44:06;11.50;;;7.50;;
75535;SDS011;64119;52.070;20.804;2023-04-24T02:46:34;11.30;;;6.90;;
75535;SDS011;64119;52.070;20.804;2023-04-24T02:49:02;12.80;;;7.60;;
75535;SDS011;64119;52.070;20.804;2023-04-24T02:51:30;12.10;;;7.70;;
75535;SDS011;64119;52.070;20.804;2023-04-24T02:53:58;10.80;;;7.50;;
75535;SDS011;64119;52.070;20.804;2023-04-24T02:56:26;14.10;;;8.20;;
75535;SDS011;64119;52.070;20.804;2023-04-24T02:58:55;9.80;;;7.50;;
75535;SDS011;64119;52.070;20.804;2023-04-24T03:01:22;11.50;;;7.40;;
75535;SDS011;64119;52.070;20.804;2023-04-24T03:03:50;13.80;;;7.90;;
75535;SDS011;64119;52.070;20.804;2023-04-24T03:06:18;12.00;;;7.50;;
75535;SDS011;64119;52.070;20.804;2023-04-24T03:08:46;10.10;;;7.00;;
75535;SDS011;64119;52.070;20.804;2023-04-24T03:11:15;10.70;;;6.60;;
75535;SDS011;64119;52.070;20.804;2023-04-24T03:13:42;10.30;;;7.70;;
75535;SDS011;64119;52.070;20.804;2023-04-24T03:16:10;11.40;;;7.30;;
75535;SDS011;64119;52.070;20.804;2023-04-24T03:18:38;10.10;;;6.50;;
75535;SDS011;64119;52.070;20.804;2023-04-24T03:21:06;13.10;;;7.80;;
75535;SDS011;64119;52.070;20.804;2023-04-24T03:23:34;12.60;;;8.00;;
75535;SDS011;64119;52.070;20.804;2023-04-24T03:26:02;12.20;;;8.40;;
75535;SDS011;64119;52.070;20.804;2023-04-24T03:28:30;9.70;;;7.20;;
75535;SDS011;64119;52.070;20.804;2023-04-24T03:31:00;10.10;;;7.10;;
75535;SDS011;64119;52.070;20.804;2023-04-24T03:33:31;11.80;;;7.30;;
75535;SDS011;64119;52.070;20.804;2023-04-24T03:36:01;11.90;;;8.40;;
75535;SDS011;64119;52.070;20.804;2023-04-24T03:38:36;12.20;;;8.50;;
75535;SDS011;64119;52.070;20.804;2023-04-24T03:41:18;9.80;;;7.10;;
75535;SDS011;64119;52.070;20.804;2023-04-24T03:43:50;11.50;;;8.20;;
75535;SDS011;64119;52.070;20.804;2023-04-24T03:46:17;11.10;;;7.90;;
75535;SDS011;64119;52.070;20.804;2023-04-24T03:48:51;12.40;;;7.20;;
75535;SDS011;64119;52.070;20.804;2023-04-24T03:51:21;9.10;;;6.40;;
75535;SDS011;64119;52.070;20.804;2023-04-24T03:53:50;9.20;;;6.00;;
75535;SDS011;64119;52.070;20.804;2023-04-24T03:56:20;10.00;;;6.90;;
75535;SDS011;64119;52.070;20.804;2023-04-24T03:58:48;7.90;;;5.30;;
75535;SDS011;64119;52.070;20.804;2023-04-24T04:01:16;11.10;;;7.30;;
75535;SDS011;64119;52.070;20.804;2023-04-24T04:03:52;9.40;;;6.10;;
75535;SDS011;64119;52.070;20.804;2023-04-24T04:06:22;10.30;;;6.90;;
75535;SDS011;64119;52.070;20.804;2023-04-24T04:08:51;8.70;;;6.40;;
75535;SDS011;64119;52.070;20.804;2023-04-24T04:11:19;11.80;;;7.80;;
75535;SDS011;64119;52.070;20.804;2023-04-24T04:13:47;10.20;;;6.80;;
75535;SDS011;64119;52.070;20.804;2023-04-24T04:21:13;11.70;;;6.80;;
75535;SDS011;64119;52.070;20.804;2023-04-24T04:23:41;9.80;;;7.30;;
75535;SDS011;64119;52.070;20.804;2023-04-24T04:26:14;8.40;;;6.30;;
75535;SDS011;64119;52.070;20.804;2023-04-24T04:28:52;10.60;;;6.70;;
75535;SDS011;64119;52.070;20.804;2023-04-24T04:31:20;8.80;;;6.60;;
75535;SDS011;64119;52.070;20.804;2023-04-24T04:33:49;10.60;;;7.20;;
75535;SDS011;64119;52.070;20.804;2023-04-24T04:36:17;10.20;;;6.90;;
75535;SDS011;64119;52.070;20.804;2023-04-24T04:38:46;8.90;;;6.50;;
75535;SDS011;64119;52.070;20.804;2023-04-24T04:41:40;10.50;;;6.70;;
75535;SDS011;64119;52.070;20.804;2023-04-24T04:44:09;8.70;;;6.10;;
75535;SDS011;64119;52.070;20.804;2023-04-24T04:46:38;9.80;;;6.70;;
75535;SDS011;64119;52.070;20.804;2023-04-24T04:49:13;11.20;;;7.10;;
75535;SDS011;64119;52.070;20.804;2023-04-24T04:51:44;11.80;;;7.30;;
75535;SDS011;64119;52.070;20.804;2023-04-24T04:54:13;10.80;;;7.50;;
75535;SDS011;64119;52.070;20.804;2023-04-24T04:56:41;11.50;;;7.10;;
75535;SDS011;64119;52.070;20.804;2023-04-24T04:59:09;8.00;;;6.10;;
75535;SDS011;64119;52.070;20.804;2023-04-24T05:01:39;7.70;;;4.80;;
75535;SDS011;64119;52.070;20.804;2023-04-24T05:04:09;10.50;;;7.00;;
75535;SDS011;64119;52.070;20.804;2023-04-24T05:06:38;8.60;;;4.80;;
75535;SDS011;64119;52.070;20.804;2023-04-24T05:09:06;11.80;;;7.00;;
75535;SDS011;64119;52.070;20.804;2023-04-24T05:11:50;9.90;;;6.60;;
75535;SDS011;64119;52.070;20.804;2023-04-24T05:14:18;13.90;;;8.40;;
75535;SDS011;64119;52.070;20.804;2023-04-24T05:16:46;11.30;;;6.60;;
75535;SDS011;64119;52.070;20.804;2023-04-24T05:19:14;8.30;;;5.90;;
75535;SDS011;64119;52.070;20.804;2023-04-24T05:21:42;9.60;;;7.30;;
75535;SDS011;64119;52.070;20.804;2023-04-24T05:24:10;8.90;;;6.70;;
75535;SDS011;64119;52.070;20.804;2023-04-24T05:26:57;10.10;;;6.70;;
75535;SDS011;64119;52.070;20.804;2023-04-24T05:29:30;12.40;;;8.20;;
75535;SDS011;64119;52.070;20.804;2023-04-24T05:31:59;12.40;;;7.60;;
75535;SDS011;64119;52.070;20.804;2023-04-24T05:34:29;12.90;;;7.20;;
75535;SDS011;64119;52.070;20.804;2023-04-24T05:36:57;9.80;;;7.10;;
75535;SDS011;64119;52.070;20.804;2023-04-24T05:39:26;9.30;;;6.50;;
75535;SDS011;64119;52.070;20.804;2023-04-24T05:41:54;10.30;;;6.70;;
75535;SDS011;64119;52.070;20.804;2023-04-24T05:44:25;5.00;;;3.50;;
75535;SDS011;64119;52.070;20.804;2023-04-24T05:46:53;9.80;;;6.40;;
75535;SDS011;64119;52.070;20.804;2023-04-24T05:49:23;9.50;;;7.50;;
75535;SDS011;64119;52.070;20.804;2023-04-24T05:51:51;10.90;;;6.70;;
75535;SDS011;64119;52.070;20.804;2023-04-24T05:54:19;13.30;;;7.60;;
75535;SDS011;64119;52.070;20.804;2023-04-24T05:56:47;6.90;;;4.90;;
75535;SDS011;64119;52.070;20.804;2023-04-24T05:59:19;10.60;;;7.70;;
75535;SDS011;64119;52.070;20.804;2023-04-24T06:01:47;10.60;;;6.80;;
75535;SDS011;64119;52.070;20.804;2023-04-24T06:04:18;10.30;;;6.70;;
75535;SDS011;64119;52.070;20.804;2023-04-24T06:06:46;10.20;;;7.10;;
75535;SDS011;64119;52.070;20.804;2023-04-24T06:09:18;10.70;;;6.80;;
75535;SDS011;64119;52.070;20.804;2023-04-24T06:11:46;8.30;;;6.30;;
75535;SDS011;64119;52.070;20.804;2023-04-24T06:14:14;12.70;;;6.10;;
75535;SDS011;64119;52.070;20.804;2023-04-24T06:17:02;9.30;;;6.30;;
75535;SDS011;64119;52.070;20.804;2023-04-24T06:19:34;9.00;;;6.70;;
75535;SDS011;64119;52.070;20.804;2023-04-24T06:22:03;9.30;;;6.60;;
75535;SDS011;64119;52.070;20.804;2023-04-24T06:24:31;8.90;;;5.80;;
75535;SDS011;64119;52.070;20.804;2023-04-24T06:26:59;14.40;;;6.90;;
75535;SDS011;64119;52.070;20.804;2023-04-24T06:29:27;8.60;;;4.60;;
75535;SDS011;64119;52.070;20.804;2023-04-24T06:31:55;9.00;;;6.50;;
75535;SDS011;64119;52.070;20.804;2023-04-24T06:34:23;5.00;;;3.60;;
75535;SDS011;64119;52.070;20.804;2023-04-24T06:36:51;7.60;;;5.50;;
75535;SDS011;64119;52.070;20.804;2023-04-24T06:39:19;9.30;;;5.50;;
75535;SDS011;64119;52.070;20.804;2023-04-24T06:41:47;7.90;;;6.00;;
75535;SDS011;64119;52.070;20.804;2023-04-24T06:44:19;9.00;;;5.20;;
75535;SDS011;64119;52.070;20.804;2023-04-24T06:46:47;9.40;;;6.00;;
75535;SDS011;64119;52.070;20.804;2023-04-24T06:49:15;8.70;;;6.10;;
75535;SDS011;64119;52.070;20.804;2023-04-24T06:51:43;11.50;;;5.90;;
75535;SDS011;64119;52.070;20.804;2023-04-24T06:54:11;9.40;;;6.50;;
75535;SDS011;64119;52.070;20.804;2023-04-24T06:56:39;12.30;;;5.30;;
75535;SDS011;64119;52.070;20.804;2023-04-24T06:59:07;12.10;;;6.90;;
75535;SDS011;64119;52.070;20.804;2023-04-24T07:01:34;7.80;;;5.50;;
75535;SDS011;64119;52.070;20.804;2023-04-24T07:04:02;7.40;;;4.90;;
75535;SDS011;64119;52.070;20.804;2023-04-24T07:06:30;8.50;;;6.50;;
75535;SDS011;64119;52.070;20.804;2023-04-24T07:08:59;8.30;;;6.20;;
75535;SDS011;64119;52.070;20.804;2023-04-24T07:11:27;9.60;;;6.50;;
75535;SDS011;64119;52.070;20.804;2023-04-24T07:13:56;8.60;;;5.70;;
75535;SDS011;64119;52.070;20.804;2023-04-24T07:16:24;10.10;;;6.70;;
75535;SDS011;64119;52.070;20.804;2023-04-24T07:18:53;8.70;;;5.10;;
75535;SDS011;64119;52.070;20.804;2023-04-24T07:21:21;9.30;;;5.80;;
75535;SDS011;64119;52.070;20.804;2023-04-24T07:23:48;7.50;;;5.90;;
75535;SDS011;64119;52.070;20.804;2023-04-24T07:26:16;9.10;;;5.40;;
75535;SDS011;64119;52.070;20.804;2023-04-24T07:28:44;9.50;;;6.20;;
75535;SDS011;64119;52.070;20.804;2023-04-24T07:31:12;8.30;;;6.00;;
75535;SDS011;64119;52.070;20.804;2023-04-24T07:33:42;11.20;;;6.40;;
75535;SDS011;64119;52.070;20.804;2023-04-24T07:36:10;9.70;;;6.80;;
75535;SDS011;64119;52.070;20.804;2023-04-24T07:38:42;10.10;;;6.40;;
75535;SDS011;64119;52.070;20.804;2023-04-24T07:41:10;8.30;;;6.60;;
75535;SDS011;64119;52.070;20.804;2023-04-24T07:43:39;8.20;;;6.30;;
75535;SDS011;64119;52.070;20.804;2023-04-24T07:46:07;9.80;;;6.50;;
75535;SDS011;64119;52.070;20.804;2023-04-24T07:48:36;9.80;;;6.20;;
75535;SDS011;64119;52.070;20.804;2023-04-24T07:51:04;10.50;;;6.40;;
75535;SDS011;64119;52.070;20.804;2023-04-24T07:53:32;9.50;;;6.10;;
75535;SDS011;64119;52.070;20.804;2023-04-24T07:55:59;10.20;;;7.40;;
75535;SDS011;64119;52.070;20.804;2023-04-24T07:58:27;8.30;;;6.40;;
75535;SDS011;64119;52.070;20.804;2023-04-24T08:00:55;10.30;;;6.70;;
75535;SDS011;64119;52.070;20.804;2023-04-24T08:03:23;10.40;;;7.70;;
75535;SDS011;64119;52.070;20.804;2023-04-24T08:05:52;9.40;;;6.80;;
75535;SDS011;64119;52.070;20.804;2023-04-24T08:08:20;10.00;;;6.20;;
75535;SDS011;64119;52.070;20.804;2023-04-24T08:10:49;8.30;;;5.50;;
75535;SDS011;64119;52.070;20.804;2023-04-24T08:13:17;9.50;;;5.30;;
75535;SDS011;64119;52.070;20.804;2023-04-24T08:15:45;8.50;;;6.50;;
75535;SDS011;64119;52.070;20.804;2023-04-24T08:18:14;10.30;;;7.00;;
75535;SDS011;64119;52.070;20.804;2023-04-24T08:23:11;11.00;;;7.80;;
75535;SDS011;64119;52.070;20.804;2023-04-24T08:25:39;9.90;;;7.30;;
75535;SDS011;64119;52.070;20.804;2023-04-24T08:28:07;8.90;;;5.60;;
75535;SDS011;64119;52.070;20.804;2023-04-24T08:30:37;9.60;;;6.40;;
75535;SDS011;64119;52.070;20.804;2023-04-24T08:33:05;9.40;;;5.50;;
75535;SDS011;64119;52.070;20.804;2023-04-24T08:35:34;11.20;;;6.70;;
75535;SDS011;64119;52.070;20.804;2023-04-24T08:38:02;10.30;;;7.00;;
75535;SDS011;64119;52.070;20.804;2023-04-24T08:40:30;7.50;;;6.10;;
75535;SDS011;64119;52.070;20.804;2023-04-24T08:43:02;6.30;;;4.90;;
75535;SDS011;64119;52.070;20.804;2023-04-24T08:45:32;8.20;;;5.50;;
75535;SDS011;64119;52.070;20.804;2023-04-24T08:48:01;7.20;;;5.30;;
75535;SDS011;64119;52.070;20.804;2023-04-24T08:50:30;8.60;;;5.60;;
75535;SDS011;64119;52.070;20.804;2023-04-24T08:53:00;8.20;;;6.10;;
75535;SDS011;64119;52.070;20.804;2023-04-24T08:55:31;6.90;;;6.00;;
75535;SDS011;64119;52.070;20.804;2023-04-24T08:58:01;6.40;;;5.20;;
75535;SDS011;64119;52.070;20.804;2023-04-24T09:00:30;8.60;;;5.90;;
75535;SDS011;64119;52.070;20.804;2023-04-24T09:03:00;10.30;;;6.80;;
75535;SDS011;64119;52.070;20.804;2023-04-24T09:05:29;7.90;;;4.90;;
75535;SDS011;64119;52.070;20.804;2023-04-24T09:07:57;7.10;;;5.30;;
75535;SDS011;64119;52.070;20.804;2023-04-24T09:10:28;5.40;;;4.30;;
75535;SDS011;64119;52.070;20.804;2023-04-24T09:12:58;6.80;;;4.90;;
75535;SDS011;64119;52.070;20.804;2023-04-24T09:15:28;10.80;;;5.40;;
75535;SDS011;64119;52.070;20.804;2023-04-24T09:17:56;7.30;;;4.90;;
75535;SDS011;64119;52.070;20.804;2023-04-24T09:20:25;13.50;;;5.20;;
75535;SDS011;64119;52.070;20.804;2023-04-24T09:22:59;7.30;;;4.90;;
75535;SDS011;64119;52.070;20.804;2023-04-24T09:25:33;9.10;;;6.80;;
75535;SDS011;64119;52.070;20.804;2023-04-24T09:28:03;8.10;;;5.90;;
75535;SDS011;64119;52.070;20.804;2023-04-24T09:30:33;8.80;;;5.90;;
75535;SDS011;64119;52.070;20.804;2023-04-24T09:33:13;7.40;;;5.20;;
75535;SDS011;64119;52.070;20.804;2023-04-24T09:35:51;7.50;;;5.30;;
75535;SDS011;64119;52.070;20.804;2023-04-24T09:38:20;6.70;;;3.70;;
75535;SDS011;64119;52.070;20.804;2023-04-24T09:41:00;8.10;;;5.30;;
75535;SDS011;64119;52.070;20.804;2023-04-24T09:43:32;7.20;;;5.30;;
75535;SDS011;64119;52.070;20.804;2023-04-24T09:46:05;9.20;;;5.30;;
75535;SDS011;64119;52.070;20.804;2023-04-24T09:48:35;6.20;;;4.10;;
75535;SDS011;64119;52.070;20.804;2023-04-24T09:51:05;7.20;;;4.60;;
75535;SDS011;64119;52.070;20.804;2023-04-24T09:53:46;9.20;;;5.40;;
75535;SDS011;64119;52.070;20.804;2023-04-24T09:56:15;6.60;;;5.10;;
75535;SDS011;64119;52.070;20.804;2023-04-24T09:58:43;7.70;;;4.40;;
75535;SDS011;64119;52.070;20.804;2023-04-24T10:01:11;7.30;;;5.10;;
75535;SDS011;64119;52.070;20.804;2023-04-24T10:03:39;8.80;;;4.70;;
75535;SDS011;64119;52.070;20.804;2023-04-24T10:06:11;6.70;;;5.00;;
75535;SDS011;64119;52.070;20.804;2023-04-24T10:08:39;8.20;;;4.60;;
75535;SDS011;64119;52.070;20.804;2023-04-24T10:11:07;7.70;;;4.70;;
75535;SDS011;64119;52.070;20.804;2023-04-24T10:13:35;6.10;;;4.50;;
75535;SDS011;64119;52.070;20.804;2023-04-24T10:16:03;4.50;;;3.70;;
75535;SDS011;64119;52.070;20.804;2023-04-24T10:18:31;7.20;;;5.30;;
75535;SDS011;64119;52.070;20.804;2023-04-24T10:21:00;5.80;;;4.50;;
75535;SDS011;64119;52.070;20.804;2023-04-24T10:23:28;6.50;;;4.50;;
75535;SDS011;64119;52.070;20.804;2023-04-24T10:28:26;6.90;;;4.20;;
75535;SDS011;64119;52.070;20.804;2023-04-24T10:30:55;5.70;;;3.70;;
75535;SDS011;64119;52.070;20.804;2023-04-24T10:33:24;7.10;;;4.10;;
75535;SDS011;64119;52.070;20.804;2023-04-24T10:35:54;5.80;;;4.20;;
75535;SDS011;64119;52.070;20.804;2023-04-24T10:38:24;7.50;;;5.40;;
75535;SDS011;64119;52.070;20.804;2023-04-24T10:40:58;5.80;;;4.10;;
75535;SDS011;64119;52.070;20.804;2023-04-24T10:43:35;6.80;;;4.40;;
75535;SDS011;64119;52.070;20.804;2023-04-24T10:46:04;5.40;;;3.70;;
75535;SDS011;64119;52.070;20.804;2023-04-24T10:48:33;6.20;;;3.10;;
75535;SDS011;64119;52.070;20.804;2023-04-24T10:51:01;4.60;;;3.10;;
75535;SDS011;64119;52.070;20.804;2023-04-24T10:53:30;5.60;;;3.70;;
75535;SDS011;64119;52.070;20.804;2023-04-24T10:58:35;5.50;;;3.80;;
75535;SDS011;64119;52.070;20.804;2023-04-24T11:01:27;7.60;;;5.20;;
75535;SDS011;64119;52.070;20.804;2023-04-24T11:03:58;6.30;;;4.50;;
75535;SDS011;64119;52.070;20.804;2023-04-24T11:06:31;6.10;;;4.50;;
75535;SDS011;64119;52.070;20.804;2023-04-24T11:09:03;6.50;;;5.20;;
75535;SDS011;64119;52.070;20.804;2023-04-24T11:11:35;7.80;;;4.80;;
75535;SDS011;64119;52.070;20.804;2023-04-24T11:14:05;5.70;;;4.40;;
75535;SDS011;64119;52.070;20.804;2023-04-24T11:16:44;10.00;;;4.60;;
75535;SDS011;64119;52.070;20.804;2023-04-24T11:19:20;6.60;;;4.70;;
75535;SDS011;64119;52.070;20.804;2023-04-24T11:21:55;5.20;;;4.10;;
75535;SDS011;64119;52.070;20.804;2023-04-24T11:27:06;5.30;;;4.10;;
75535;SDS011;64119;52.070;20.804;2023-04-24T11:35:18;6.00;;;4.70;;
75535;SDS011;64119;52.070;20.804;2023-04-24T11:37:52;9.80;;;3.70;;
75535;SDS011;64119;52.070;20.804;2023-04-24T11:40:24;4.90;;;3.90;;
75535;SDS011;64119;52.070;20.804;2023-04-24T11:42:53;9.30;;;4.60;;
75535;SDS011;64119;52.070;20.804;2023-04-24T11:45:25;6.20;;;3.90;;
75535;SDS011;64119;52.070;20.804;2023-04-24T11:47:55;5.40;;;4.00;;
75535;SDS011;64119;52.070;20.804;2023-04-24T11:50:25;5.40;;;4.00;;
75535;SDS011;64119;52.070;20.804;2023-04-24T11:52:56;5.90;;;3.70;;
75535;SDS011;64119;52.070;20.804;2023-04-24T11:55:28;4.90;;;3.00;;
75535;SDS011;64119;52.070;20.804;2023-04-24T11:57:57;4.40;;;3.60;;
75535;SDS011;64119;52.070;20.804;2023-04-24T12:00:29;6.50;;;4.30;;
75535;SDS011;64119;52.070;20.804;2023-04-24T12:03:11;3.60;;;3.20;;
75535;SDS011;64119;52.070;20.804;2023-04-24T12:05:40;5.70;;;3.60;;
75535;SDS011;64119;52.070;20.804;2023-04-24T12:08:08;5.10;;;3.30;;
75535;SDS011;64119;52.070;20.804;2023-04-24T12:10:37;8.40;;;3.90;;
75535;SDS011;64119;52.070;20.804;2023-04-24T12:13:04;6.40;;;3.90;;
75535;SDS011;64119;52.070;20.804;2023-04-24T12:15:33;5.80;;;3.70;;
75535;SDS011;64119;52.070;20.804;2023-04-24T12:18:01;4.60;;;3.30;;
75535;SDS011;64119;52.070;20.804;2023-04-24T12:20:30;3.70;;;2.90;;
75535;SDS011;64119;52.070;20.804;2023-04-24T12:23:00;6.00;;;3.10;;
75535;SDS011;64119;52.070;20.804;2023-04-24T12:25:29;4.90;;;3.00;;
75535;SDS011;64119;52.070;20.804;2023-04-24T12:30:34;3.00;;;2.00;;
75535;SDS011;64119;52.070;20.804;2023-04-24T12:33:05;10.90;;;3.10;;
75535;SDS011;64119;52.070;20.804;2023-04-24T12:35:33;9.60;;;2.90;;
75535;SDS011;64119;52.070;20.804;2023-04-24T12:38:06;3.60;;;2.00;;
75535;SDS011;64119;52.070;20.804;2023-04-24T12:40:35;3.30;;;2.20;;
75535;SDS011;64119;52.070;20.804;2023-04-24T12:43:12;2.80;;;2.00;;
75535;SDS011;64119;52.070;20.804;2023-04-24T12:45:47;3.30;;;1.80;;
75535;SDS011;64119;52.070;20.804;2023-04-24T12:48:15;3.80;;;2.40;;
75535;SDS011;64119;52.070;20.804;2023-04-24T12:50:44;4.30;;;2.20;;
75535;SDS011;64119;52.070;20.804;2023-04-24T12:53:13;4.20;;;2.60;;
75535;SDS011;64119;52.070;20.804;2023-04-24T12:55:43;5.40;;;2.20;;
75535;SDS011;64119;52.070;20.804;2023-04-24T12:58:12;3.70;;;1.80;;
75535;SDS011;64119;52.070;20.804;2023-04-24T13:00:40;2.40;;;1.90;;
75535;SDS011;64119;52.070;20.804;2023-04-24T13:03:11;2.60;;;2.00;;
75535;SDS011;64119;52.070;20.804;2023-04-24T13:05:40;4.20;;;2.30;;
75535;SDS011;64119;52.070;20.804;2023-04-24T13:08:08;3.00;;;2.30;;
75535;SDS011;64119;52.070;20.804;2023-04-24T13:10:36;3.90;;;2.70;;
75535;SDS011;64119;52.070;20.804;2023-04-24T13:13:04;2.90;;;2.10;;
75535;SDS011;64119;52.070;20.804;2023-04-24T13:15:32;4.40;;;2.40;;
75535;SDS011;64119;52.070;20.804;2023-04-24T13:18:00;3.40;;;2.30;;
75535;SDS011;64119;52.070;20.804;2023-04-24T13:20:28;3.70;;;2.30;;
75535;SDS011;64119;52.070;20.804;2023-04-24T13:22:56;3.10;;;2.00;;
75535;SDS011;64119;52.070;20.804;2023-04-24T13:25:24;2.70;;;2.10;;
75535;SDS011;64119;52.070;20.804;2023-04-24T13:27:52;3.90;;;1.80;;
75535;SDS011;64119;52.070;20.804;2023-04-24T13:30:20;4.40;;;2.00;;
75535;SDS011;64119;52.070;20.804;2023-04-24T13:32:48;2.50;;;1.80;;
75535;SDS011;64119;52.070;20.804;2023-04-24T13:35:16;3.00;;;2.20;;
75535;SDS011;64119;52.070;20.804;2023-04-24T13:37:43;2.90;;;2.00;;
75535;SDS011;64119;52.070;20.804;2023-04-24T13:40:11;2.80;;;1.80;;
75535;SDS011;64119;52.070;20.804;2023-04-24T13:42:41;2.80;;;2.20;;
75535;SDS011;64119;52.070;20.804;2023-04-24T13:45:10;2.90;;;2.00;;
75535;SDS011;64119;52.070;20.804;2023-04-24T13:47:51;2.90;;;1.80;;
75535;SDS011;64119;52.070;20.804;2023-04-24T13:50:21;5.30;;;2.60;;
75535;SDS011;64119;52.070;20.804;2023-04-24T13:52:49;2.80;;;2.30;;
75535;SDS011;64119;52.070;20.804;2023-04-24T13:55:18;3.30;;;2.40;;
75535;SDS011;64119;52.070;20.804;2023-04-24T13:57:45;3.20;;;2.40;;
75535;SDS011;64119;52.070;20.804;2023-04-24T14:00:13;3.30;;;2.60;;
75535;SDS011;64119;52.070;20.804;2023-04-24T14:02:42;3.40;;;2.30;;
75535;SDS011;64119;52.070;20.804;2023-04-24T14:05:10;4.10;;;2.20;;
75535;SDS011;64119;52.070;20.804;2023-04-24T14:07:38;2.20;;;1.70;;
75535;SDS011;64119;52.070;20.804;2023-04-24T14:10:06;2.70;;;1.90;;
75535;SDS011;64119;52.070;20.804;2023-04-24T14:12:34;2.50;;;2.00;;
75535;SDS011;64119;52.070;20.804;2023-04-24T14:15:03;3.10;;;2.00;;
75535;SDS011;64119;52.070;20.804;2023-04-24T14:17:32;3.40;;;2.30;;
75535;SDS011;64119;52.070;20.804;2023-04-24T14:20:00;2.60;;;2.00;;
75535;SDS011;64119;52.070;20.804;2023-04-24T14:22:28;3.30;;;2.30;;
75535;SDS011;64119;52.070;20.804;2023-04-24T14:24:56;3.70;;;2.60;;
75535;SDS011;64119;52.070;20.804;2023-04-24T14:27:24;3.00;;;2.10;;
75535;SDS011;64119;52.070;20.804;2023-04-24T14:29:53;3.70;;;2.60;;
75535;SDS011;64119;52.070;20.804;2023-04-24T14:32:21;2.30;;;2.00;;
75535;SDS011;64119;52.070;20.804;2023-04-24T14:34:49;2.70;;;2.10;;
75535;SDS011;64119;52.070;20.804;2023-04-24T14:37:17;2.50;;;1.90;;
75535;SDS011;64119;52.070;20.804;2023-04-24T14:39:45;4.90;;;2.30;;
75535;SDS011;64119;52.070;20.804;2023-04-24T14:42:33;2.80;;;2.30;;
75535;SDS011;64119;52.070;20.804;2023-04-24T14:45:01;4.20;;;3.00;;
75535;SDS011;64119;52.070;20.804;2023-04-24T14:47:29;3.90;;;2.80;;
75535;SDS011;64119;52.070;20.804;2023-04-24T14:49:58;3.70;;;2.50;;
75535;SDS011;64119;52.070;20.804;2023-04-24T14:52:25;4.10;;;2.30;;
75535;SDS011;64119;52.070;20.804;2023-04-24T14:54:53;4.00;;;2.30;;
75535;SDS011;64119;52.070;20.804;2023-04-24T14:57:22;3.50;;;2.70;;
75535;SDS011;64119;52.070;20.804;2023-04-24T14:59:50;4.80;;;2.60;;
75535;SDS011;64119;52.070;20.804;2023-04-24T15:02:19;3.70;;;2.40;;
75535;SDS011;64119;52.070;20.804;2023-04-24T15:04:47;3.10;;;2.00;;
75535;SDS011;64119;52.070;20.804;2023-04-24T15:07:15;3.00;;;2.40;;
75535;SDS011;64119;52.070;20.804;2023-04-24T15:09:43;3.60;;;2.30;;